This demonstration page uses our WeatherBlox Daily Observations layout. Learn more.

38.89511, -77.03637

Hourly Observations for January 10, 2018

Temp ( °F °C ) Dew Point ( °F °C ) Humidity (%) Winds ( mph kmh ) Pressure ( in mb ) Visibility ( mi km ) Precip ( " mm )
12:52 am 00:52 Mostly Clear 31 -0.6 27 -2.8 85 85 NNE 5 7 30.4 1030 10 16.0934 0 0
1:52 am 01:52 Mostly Clear 30 -1.1 25 -3.9 82 82 N 7 11 30.4 1029 10 16.0934 0 0
2:52 am 02:52 Clear 31 -0.6 24 -4.4 76 76 NNW 6 9 30.42 1030 10 16.0934 0 0
3:52 am 03:52 Mostly Clear 34 1.1 25 -3.9 70 70 NNE 5 7 30.42 1030 10 16.0934 0 0
4:52 am 04:52 Mostly Cloudy 31 -0.6 25 -3.9 79 79 Calm 30.43 1031 10 16.0934 0 0
5:52 am 05:52 Mostly Cloudy 28 -2.2 25 -3.9 88 88 NNE 5 7 30.44 1031 10 16.0934 0 0
6:52 am 06:52 Cloudy 31 -0.6 26 -3.3 82 82 NE 5 7 30.45 1031 10 16.0934 0 0
7:52 am 07:52 Cloudy 32 0 27 -2.8 82 82 Calm 30.48 1032 10 16.0934 0 0
8:52 am 08:52 Cloudy 34 1.1 27 -2.8 76 76 Calm 30.5 1033 10 16.0934 0 0
9:52 am 09:52 Cloudy 36 2.2 27 -2.8 70 70 Calm 30.51 1033 10 16.0934 0 0
10:52 am 10:52 Cloudy 37 2.8 27 -2.8 67 67 Calm 30.5 1033 10 16.0934 0 0
11:52 am 11:52 Cloudy 40 4.4 27 -2.8 60 60 SSW 5 7 30.48 1032 10 16.0934 0 0
12:52 pm 12:52 Cloudy 40 4.4 28 -2.2 63 63 S 7 11 30.45 1031 10 16.0934 0 0
1:52 pm 13:52 Cloudy 40 4.4 28 -2.2 63 63 S 7 11 30.42 1030 10 16.0934 0 0
2:52 pm 14:52 Cloudy 41 5 29 -1.7 62 62 S 7 11 30.4 1030 10 16.0934 0 0
3:52 pm 15:52 Cloudy 42 5.6 30 -1.1 62 62 S 3 6 30.4 1029 10 16.0934 0 0
4:52 pm 16:52 Cloudy 43 6.1 31 -0.6 63 63 SSW 3 6 30.4 1029 10 16.0934 0 0
5:52 pm 17:52 Cloudy 40 4.4 31 -0.6 70 70 SSE 3 6 30.4 1029 10 16.0934 0 0
6:52 pm 18:52 Cloudy 40 4.4 32 0 73 73 SSE 3 6 30.4 1030 10 16.0934 0 0
7:52 pm 19:52 Cloudy 41 5 31 -0.6 67 67 ESE 6 9 30.42 1030 10 16.0934 0 0
8:52 pm 20:52 Cloudy 40 4.4 32 0 73 73 SSE 3 6 30.42 1030 10 16.0934 0 0
9:52 pm 21:52 Cloudy 41 5 32 0 70 70 Calm 30.42 1030 10 16.0934 0 0
10:52 pm 22:52 Cloudy 42 5.6 32 0 68 68 Calm 30.41 1030 10 16.0934 0 0
11:52 pm 23:52 Cloudy 40 4.4 32 0 73 73 Calm 30.39 1029 10 16.0934 0 0

Powered by AerisWeather